Time;durP1;ratioP1;P1;durP2;ratioP2;P2;SDS_P1;SDS_P2;PMS_P1;PMS_P2;Temp;Humidity;BMP_temperature;BMP_pressure;BME280_temperature;BME280_humidity;BME280_pressure;Samples;Min_cycle;Max_cycle;Signal;HPM_P1;HPM_P2
2024/03/07 00:01:34;;;;;;;14.80;6.40;;;;;;;;;;5132105;28;20238;-80
2024/03/07 00:04:01;;;;;;;13.80;6.97;;;;;;;;;;5131642;27;20199;-79
2024/03/07 00:06:28;;;;;;;12.40;5.70;;;;;;;;;;5131616;28;20228;-79
2024/03/07 00:08:57;;;;;;;11.93;5.80;;;;;;;;;;5134130;27;20283;-79
2024/03/07 00:11:24;;;;;;;11.97;5.90;;;;;;;;;;5134811;27;20290;-80
2024/03/07 00:13:51;;;;;;;14.07;7.27;;;;;;;;;;5134915;27;20204;-79
2024/03/07 00:16:18;;;;;;;16.33;6.13;;;;;;;;;;5135155;27;20236;-79
2024/03/07 00:18:45;;;;;;;10.80;6.67;;;;;;;;;;5135211;27;20292;-79
2024/03/07 00:21:13;;;;;;;11.57;6.30;;;;;;;;;;5135155;27;20257;-79
2024/03/07 00:23:40;;;;;;;11.53;6.07;;;;;;;;;;5135141;27;20585;-79
2024/03/07 00:26:08;;;;;;;12.87;6.90;;;;;;;;;;5134609;27;20237;-80
2024/03/07 00:28:39;;;;;;;15.43;7.00;;;;;;;;;;5134698;27;20295;-80
2024/03/07 00:31:07;;;;;;;12.67;7.20;;;;;;;;;;5134981;27;20196;-80
2024/03/07 00:33:35;;;;;;;14.70;7.30;;;;;;;;;;5134762;27;20202;-80
2024/03/07 00:36:02;;;;;;;13.40;6.83;;;;;;;;;;5135070;27;20249;-79
2024/03/07 00:38:29;;;;;;;13.83;6.73;;;;;;;;;;5134706;27;20766;-79
2024/03/07 00:40:56;;;;;;;14.20;6.93;;;;;;;;;;5134244;27;20283;-79
2024/03/07 00:43:25;;;;;;;12.70;7.03;;;;;;;;;;5134883;27;20295;-80
2024/03/07 00:45:52;;;;;;;11.33;7.10;;;;;;;;;;5134408;27;20224;-80
2024/03/07 00:48:19;;;;;;;12.57;6.50;;;;;;;;;;5134887;27;20759;-79
2024/03/07 00:50:46;;;;;;;11.53;6.33;;;;;;;;;;5134816;27;20242;-79
2024/03/07 00:53:15;;;;;;;12.00;6.53;;;;;;;;;;5134231;27;20197;-79
2024/03/07 00:55:43;;;;;;;15.67;6.60;;;;;;;;;;5134457;27;20200;-79
2024/03/07 00:58:12;;;;;;;16.53;6.87;;;;;;;;;;5134557;27;20198;-79
2024/03/07 01:00:42;;;;;;;12.80;7.03;;;;;;;;;;5134262;27;20204;-79
2024/03/07 01:03:13;;;;;;;13.13;7.17;;;;;;;;;;5134026;27;20810;-80
2024/03/07 01:05:40;;;;;;;14.63;6.93;;;;;;;;;;5134414;27;20204;-80
2024/03/07 01:08:08;;;;;;;11.17;6.63;;;;;;;;;;5134190;27;20202;-79
2024/03/07 01:10:35;;;;;;;14.63;7.13;;;;;;;;;;5133395;27;20676;-80
2024/03/07 01:13:05;;;;;;;11.80;6.33;;;;;;;;;;5134048;27;20967;-79
2024/03/07 01:15:33;;;;;;;16.57;6.73;;;;;;;;;;5134230;27;20235;-78
2024/03/07 01:18:02;;;;;;;14.93;6.90;;;;;;;;;;5134063;27;20255;-79
2024/03/07 01:20:29;;;;;;;12.83;6.13;;;;;;;;;;5132797;27;20194;-79
2024/03/07 01:22:56;;;;;;;14.93;6.23;;;;;;;;;;5134059;27;20221;-80
2024/03/07 01:25:24;;;;;;;11.90;6.47;;;;;;;;;;5133783;27;20200;-79
2024/03/07 01:27:51;;;;;;;15.10;5.87;;;;;;;;;;5133239;27;20329;-80
2024/03/07 01:30:18;;;;;;;13.57;6.23;;;;;;;;;;5133495;27;20567;-79
2024/03/07 01:32:45;;;;;;;15.57;6.07;;;;;;;;;;5133388;27;20243;-79
2024/03/07 01:35:14;;;;;;;12.63;6.17;;;;;;;;;;5133911;27;20286;-79
2024/03/07 01:37:41;;;;;;;11.60;5.83;;;;;;;;;;5133941;27;20210;-79
2024/03/07 01:40:09;;;;;;;14.57;6.20;;;;;;;;;;5133447;27;20284;-79
2024/03/07 01:42:36;;;;;;;10.80;5.73;;;;;;;;;;5133574;27;20298;-79
2024/03/07 01:45:04;;;;;;;11.87;5.80;;;;;;;;;;5133346;27;20298;-79
2024/03/07 01:47:31;;;;;;;16.77;5.70;;;;;;;;;;5133376;27;20324;-80
2024/03/07 01:49:59;;;;;;;13.67;5.90;;;;;;;;;;5133428;27;20194;-79
2024/03/07 01:52:27;;;;;;;15.23;6.10;;;;;;;;;;5133142;27;20196;-79
2024/03/07 01:54:54;;;;;;;12.83;5.60;;;;;;;;;;5133047;27;20227;-79
2024/03/07 01:57:22;;;;;;;10.87;6.23;;;;;;;;;;5133575;27;20284;-79
2024/03/07 01:59:50;;;;;;;12.63;5.63;;;;;;;;;;5133180;27;20213;-78
2024/03/07 02:02:17;;;;;;;11.47;5.37;;;;;;;;;;5133310;27;20195;-80
2024/03/07 02:04:44;;;;;;;13.23;5.67;;;;;;;;;;5132861;27;20200;-79
2024/03/07 02:07:12;;;;;;;10.83;5.60;;;;;;;;;;5132667;27;20232;-80
2024/03/07 02:09:40;;;;;;;15.10;4.90;;;;;;;;;;5132942;27;20194;-80
2024/03/07 02:12:08;;;;;;;12.50;5.00;;;;;;;;;;5133093;27;20287;-80
2024/03/07 02:14:37;;;;;;;13.80;5.87;;;;;;;;;;5133019;27;22042;-79
2024/03/07 02:17:04;;;;;;;13.73;5.63;;;;;;;;;;5132758;27;20322;-79
2024/03/07 02:19:32;;;;;;;12.50;5.83;;;;;;;;;;5132804;27;20259;-79
2024/03/07 02:22:00;;;;;;;9.53;5.23;;;;;;;;;;5103606;28;20286;-79
2024/03/07 02:24:27;;;;;;;13.90;5.53;;;;;;;;;;5091411;28;20659;-79
2024/03/07 02:26:55;;;;;;;12.73;5.17;;;;;;;;;;5091990;28;20219;-79
2024/03/07 02:29:22;;;;;;;10.53;5.63;;;;;;;;;;5091749;28;20784;-80
2024/03/07 02:31:49;;;;;;;10.40;5.07;;;;;;;;;;5091717;28;20298;-78
2024/03/07 02:34:16;;;;;;;18.23;5.53;;;;;;;;;;5091782;28;20203;-79
2024/03/07 02:36:43;;;;;;;13.30;5.10;;;;;;;;;;5091064;28;20199;-79
2024/03/07 02:39:12;;;;;;;12.83;5.00;;;;;;;;;;5091703;28;20201;-79
2024/03/07 02:41:39;;;;;;;11.93;4.77;;;;;;;;;;5092071;28;20199;-79
2024/03/07 02:44:06;;;;;;;11.90;5.33;;;;;;;;;;5091439;28;20287;-79
2024/03/07 02:46:33;;;;;;;12.30;5.37;;;;;;;;;;5091384;28;20226;-79
2024/03/07 02:49:00;;;;;;;12.73;5.83;;;;;;;;;;5091641;28;20292;-79
2024/03/07 02:51:28;;;;;;;10.73;5.07;;;;;;;;;;5091032;28;20191;-79
2024/03/07 02:53:55;;;;;;;13.53;5.20;;;;;;;;;;5091764;28;20200;-79
2024/03/07 02:56:23;;;;;;;12.13;5.20;;;;;;;;;;5091373;28;20207;-79
2024/03/07 02:58:51;;;;;;;13.30;5.73;;;;;;;;;;5091416;28;20295;-80
2024/03/07 03:01:18;;;;;;;10.90;4.77;;;;;;;;;;5091286;28;20214;-79
2024/03/07 03:03:45;;;;;;;16.93;5.73;;;;;;;;;;5091241;28;20391;-79
2024/03/07 03:06:12;;;;;;;13.03;5.53;;;;;;;;;;5090936;28;20282;-80
2024/03/07 03:08:39;;;;;;;11.57;5.10;;;;;;;;;;5091656;28;20642;-79
2024/03/07 03:11:09;;;;;;;11.33;5.30;;;;;;;;;;5090819;28;20289;-79
2024/03/07 03:13:39;;;;;;;11.37;5.50;;;;;;;;;;5122266;28;20255;-79
2024/03/07 03:16:06;;;;;;;12.00;5.23;;;;;;;;;;5131994;27;20310;-80
2024/03/07 03:18:34;;;;;;;9.87;5.40;;;;;;;;;;5132246;27;20210;-79
2024/03/07 03:21:02;;;;;;;16.87;6.03;;;;;;;;;;5131826;27;20207;-79
2024/03/07 03:23:29;;;;;;;13.87;6.33;;;;;;;;;;5132222;28;20285;-79
2024/03/07 03:25:56;;;;;;;14.80;6.10;;;;;;;;;;5131477;28;20193;-79
2024/03/07 03:28:23;;;;;;;17.33;5.97;;;;;;;;;;5132062;28;20256;-78
2024/03/07 03:30:52;;;;;;;13.07;5.80;;;;;;;;;;5131871;28;20218;-79
2024/03/07 03:33:20;;;;;;;19.43;6.20;;;;;;;;;;5131661;28;20206;-79
2024/03/07 03:35:48;;;;;;;15.13;5.77;;;;;;;;;;5131357;28;20195;-78
2024/03/07 03:38:15;;;;;;;14.27;6.33;;;;;;;;;;5131977;28;20299;-79
2024/03/07 03:40:43;;;;;;;11.73;5.67;;;;;;;;;;5131928;27;20199;-79
2024/03/07 03:43:10;;;;;;;12.67;6.20;;;;;;;;;;5133482;27;20287;-79
2024/03/07 03:45:37;;;;;;;11.83;6.03;;;;;;;;;;5135622;27;20298;-78
2024/03/07 03:48:06;;;;;;;13.67;5.90;;;;;;;;;;5135538;27;20222;-79
2024/03/07 03:50:33;;;;;;;15.00;5.80;;;;;;;;;;5135315;27;20193;-79
2024/03/07 03:53:01;;;;;;;14.47;5.77;;;;;;;;;;5135653;27;20292;-79
2024/03/07 03:55:29;;;;;;;13.87;6.10;;;;;;;;;;5135996;27;20226;-79
2024/03/07 03:57:56;;;;;;;12.77;5.70;;;;;;;;;;5135254;27;20944;-79
2024/03/07 04:00:23;;;;;;;11.97;5.83;;;;;;;;;;5135404;27;20289;-79
2024/03/07 04:02:51;;;;;;;11.53;5.57;;;;;;;;;;5135381;27;20695;-78
2024/03/07 04:05:21;;;;;;;15.67;5.83;;;;;;;;;;5134721;27;20660;-79
2024/03/07 04:07:48;;;;;;;13.37;5.80;;;;;;;;;;5135116;27;20229;-79
2024/03/07 04:10:16;;;;;;;10.97;5.90;;;;;;;;;;5135234;27;20195;-78
2024/03/07 04:12:43;;;;;;;13.63;6.10;;;;;;;;;;5135173;27;20226;-79
2024/03/07 04:15:11;;;;;;;12.37;5.87;;;;;;;;;;5134774;27;20221;-79
2024/03/07 04:17:39;;;;;;;12.60;5.53;;;;;;;;;;5135626;27;20284;-79
2024/03/07 04:20:07;;;;;;;9.97;5.70;;;;;;;;;;5134845;27;20204;-78
2024/03/07 04:22:38;;;;;;;11.47;5.60;;;;;;;;;;5134965;27;20613;-80
2024/03/07 04:25:06;;;;;;;12.17;5.70;;;;;;;;;;5134960;27;20190;-78
2024/03/07 04:27:34;;;;;;;14.07;5.60;;;;;;;;;;5134738;27;20235;-79
2024/03/07 04:30:03;;;;;;;11.57;5.83;;;;;;;;;;5134778;27;20238;-80
2024/03/07 04:32:30;;;;;;;11.30;5.30;;;;;;;;;;5134704;27;20201;-79
2024/03/07 04:34:57;;;;;;;13.43;5.47;;;;;;;;;;5135118;27;20297;-79
2024/03/07 04:37:24;;;;;;;8.43;5.47;;;;;;;;;;5134571;27;20214;-79
2024/03/07 04:39:53;;;;;;;13.17;5.53;;;;;;;;;;5134540;27;20208;-80
2024/03/07 04:42:20;;;;;;;11.60;5.83;;;;;;;;;;5134606;27;20292;-79
2024/03/07 04:44:47;;;;;;;13.27;5.80;;;;;;;;;;5134300;27;20299;-79
2024/03/07 04:47:14;;;;;;;9.83;5.47;;;;;;;;;;5134079;27;20223;-79
2024/03/07 04:49:43;;;;;;;12.47;5.40;;;;;;;;;;5134616;27;20196;-79
2024/03/07 04:52:10;;;;;;;11.60;5.53;;;;;;;;;;5134518;27;20564;-79
2024/03/07 04:54:37;;;;;;;14.40;5.33;;;;;;;;;;5134551;27;20588;-79
2024/03/07 04:57:06;;;;;;;8.83;5.17;;;;;;;;;;5116497;27;20689;-79
2024/03/07 04:59:33;;;;;;;11.83;5.37;;;;;;;;;;5113761;28;20207;-79
2024/03/07 05:02:02;;;;;;;10.83;4.93;;;;;;;;;;5113432;28;20286;-79
2024/03/07 05:04:32;;;;;;;13.57;5.87;;;;;;;;;;5113921;28;20202;-79
2024/03/07 05:07:00;;;;;;;10.47;5.53;;;;;;;;;;5113707;28;20236;-80
2024/03/07 05:09:28;;;;;;;9.83;5.87;;;;;;;;;;5113606;28;20191;-79
2024/03/07 05:11:55;;;;;;;8.40;5.23;;;;;;;;;;5115406;27;20199;-79
2024/03/07 05:14:25;;;;;;;9.93;5.53;;;;;;;;;;5133947;27;20731;-79
2024/03/07 05:17:04;;;;;;;14.20;6.07;;;;;;;;;;5133663;27;20272;-79
2024/03/07 05:19:32;;;;;;;12.63;5.77;;;;;;;;;;5133851;27;20276;-78
2024/03/07 05:21:59;;;;;;;11.20;5.57;;;;;;;;;;5133923;27;20199;-79
2024/03/07 05:24:27;;;;;;;9.10;5.40;;;;;;;;;;5133908;27;20282;-79
2024/03/07 05:26:54;;;;;;;8.80;5.00;;;;;;;;;;5133976;27;20195;-79
2024/03/07 05:29:22;;;;;;;9.37;4.80;;;;;;;;;;5133675;27;20259;-78
2024/03/07 05:31:50;;;;;;;8.73;5.27;;;;;;;;;;5132929;27;20198;-79
2024/03/07 05:34:19;;;;;;;15.00;5.20;;;;;;;;;;5133636;27;20639;-78
2024/03/07 05:36:46;;;;;;;9.90;5.40;;;;;;;;;;5133921;27;20198;-79
2024/03/07 05:39:14;;;;;;;10.30;5.57;;;;;;;;;;5133592;27;20681;-79
2024/03/07 05:41:42;;;;;;;11.60;5.50;;;;;;;;;;5133747;27;20189;-79
2024/03/07 05:44:09;;;;;;;10.07;5.47;;;;;;;;;;5133725;27;20283;-79
2024/03/07 05:46:41;;;;;;;12.53;4.93;;;;;;;;;;5133160;27;20241;-79
2024/03/07 05:49:09;;;;;;;10.40;5.10;;;;;;;;;;5103932;27;20227;-79
2024/03/07 05:51:37;;;;;;;9.10;5.20;;;;;;;;;;5097502;28;20302;-79
2024/03/07 05:54:06;;;;;;;7.63;5.03;;;;;;;;;;5113039;28;20201;-79
2024/03/07 05:56:35;;;;;;;12.80;5.67;;;;;;;;;;5096327;28;20200;-79
2024/03/07 05:59:04;;;;;;;8.77;5.07;;;;;;;;;;5092213;28;20195;-79
2024/03/07 06:01:34;;;;;;;10.57;5.10;;;;;;;;;;5092354;28;20241;-79
2024/03/07 06:04:01;;;;;;;10.77;5.10;;;;;;;;;;5092162;28;20197;-79
2024/03/07 06:06:31;;;;;;;11.70;5.40;;;;;;;;;;5091580;28;20567;-81
2024/03/07 06:08:59;;;;;;;9.93;5.03;;;;;;;;;;5091914;28;20249;-79
2024/03/07 06:11:26;;;;;;;8.67;5.17;;;;;;;;;;5092024;28;20199;-79
2024/03/07 06:13:53;;;;;;;9.60;5.10;;;;;;;;;;5127515;27;20206;-78
2024/03/07 06:16:20;;;;;;;9.53;5.10;;;;;;;;;;5132877;27;20723;-80
2024/03/07 06:18:47;;;;;;;8.83;4.93;;;;;;;;;;5132749;27;20199;-79
2024/03/07 06:21:14;;;;;;;8.77;5.50;;;;;;;;;;5132965;27;20288;-80
2024/03/07 06:23:43;;;;;;;12.47;5.60;;;;;;;;;;5132802;27;20293;-80
2024/03/07 06:26:16;;;;;;;10.73;5.70;;;;;;;;;;5132714;27;20199;-79
2024/03/07 06:28:45;;;;;;;10.13;5.43;;;;;;;;;;5132287;27;20226;-81
2024/03/07 06:31:12;;;;;;;10.67;5.80;;;;;;;;;;5132468;27;20812;-80
2024/03/07 06:33:39;;;;;;;12.73;6.80;;;;;;;;;;5132941;27;20200;-80
2024/03/07 06:36:08;;;;;;;9.87;6.87;;;;;;;;;;5133039;27;20239;-79
2024/03/07 06:38:36;;;;;;;37.30;17.87;;;;;;;;;;5132014;27;20190;-79
2024/03/07 06:41:04;;;;;;;21.60;11.10;;;;;;;;;;5132699;27;20198;-79
2024/03/07 06:43:31;;;;;;;23.53;14.43;;;;;;;;;;5111731;28;20201;-80
2024/03/07 06:45:59;;;;;;;10.87;7.50;;;;;;;;;;5108507;28;20281;-76
2024/03/07 06:48:26;;;;;;;11.63;7.77;;;;;;;;;;5097575;28;20709;-82
2024/03/07 06:50:53;;;;;;;10.33;6.77;;;;;;;;;;5091430;28;20287;-82
2024/03/07 06:53:25;;;;;;;16.57;8.80;;;;;;;;;;5091538;28;20204;-82
2024/03/07 06:55:53;;;;;;;11.57;5.83;;;;;;;;;;5096422;28;20577;-82
2024/03/07 06:58:22;;;;;;;10.43;5.67;;;;;;;;;;5110732;28;20634;-83
2024/03/07 07:00:51;;;;;;;12.53;6.20;;;;;;;;;;5111982;28;20230;-82
2024/03/07 07:03:19;;;;;;;7.23;5.57;;;;;;;;;;5111687;28;20198;-82
2024/03/07 07:05:46;;;;;;;8.80;5.40;;;;;;;;;;5110866;28;20292;-82
2024/03/07 07:08:14;;;;;;;8.23;5.07;;;;;;;;;;5112266;28;20226;-83
2024/03/07 07:10:42;;;;;;;11.43;5.43;;;;;;;;;;5112402;28;20194;-83
2024/03/07 07:13:10;;;;;;;8.97;5.37;;;;;;;;;;5122681;28;20196;-83
2024/03/07 07:15:39;;;;;;;10.53;5.87;;;;;;;;;;5111413;28;20326;-82
2024/03/07 07:18:07;;;;;;;9.47;5.20;;;;;;;;;;5112962;28;20233;-82
2024/03/07 07:20:34;;;;;;;8.10;4.63;;;;;;;;;;5116439;28;20255;-82
2024/03/07 07:23:03;;;;;;;8.17;4.87;;;;;;;;;;5115024;28;20207;-82
2024/03/07 07:25:30;;;;;;;8.87;4.43;;;;;;;;;;5114897;28;20289;-83
2024/03/07 07:27:57;;;;;;;6.87;4.03;;;;;;;;;;5115196;28;20328;-83
2024/03/07 07:30:26;;;;;;;8.20;4.47;;;;;;;;;;5116080;28;20218;-82
2024/03/07 07:32:55;;;;;;;7.63;4.53;;;;;;;;;;5115454;28;20189;-82
2024/03/07 07:35:22;;;;;;;7.57;4.80;;;;;;;;;;5115647;28;20289;-82
2024/03/07 07:37:51;;;;;;;8.30;4.30;;;;;;;;;;5115316;28;20193;-82
2024/03/07 07:40:19;;;;;;;8.33;4.60;;;;;;;;;;5115698;28;20194;-81
2024/03/07 07:42:46;;;;;;;8.97;4.90;;;;;;;;;;5114812;28;20284;-82
2024/03/07 07:45:14;;;;;;;9.60;4.40;;;;;;;;;;5115405;28;20222;-83
2024/03/07 07:47:42;;;;;;;6.27;3.90;;;;;;;;;;5115612;28;20233;-82
2024/03/07 07:50:12;;;;;;;7.10;3.90;;;;;;;;;;5115571;28;20201;-82
2024/03/07 07:52:42;;;;;;;7.73;3.70;;;;;;;;;;5115389;28;20208;-82
2024/03/07 07:55:14;;;;;;;7.27;4.07;;;;;;;;;;5115191;28;20216;-81
2024/03/07 07:57:42;;;;;;;7.43;4.47;;;;;;;;;;5115059;28;20194;-82
2024/03/07 08:00:09;;;;;;;5.20;3.23;;;;;;;;;;5114978;28;20289;-82
2024/03/07 08:02:37;;;;;;;5.10;3.00;;;;;;;;;;5115488;28;20202;-82
2024/03/07 08:05:05;;;;;;;4.60;3.10;;;;;;;;;;5114936;28;20297;-81
2024/03/07 08:07:33;;;;;;;3.73;3.30;;;;;;;;;;5115309;28;20194;-82
2024/03/07 08:10:01;;;;;;;6.37;3.50;;;;;;;;;;5114602;28;20308;-81
2024/03/07 08:12:28;;;;;;;4.23;3.80;;;;;;;;;;5120923;27;20193;-82
2024/03/07 08:14:56;;;;;;;4.83;3.00;;;;;;;;;;5135509;27;20200;-81
2024/03/07 08:17:23;;;;;;;5.28;2.80;;;;;;;;;;5135260;27;20221;-83
2024/03/07 08:19:51;;;;;;;4.05;2.63;;;;;;;;;;5135315;27;20197;-82
2024/03/07 08:22:19;;;;;;;4.95;2.55;;;;;;;;;;5135613;27;20201;-83
2024/03/07 08:24:47;;;;;;;6.47;2.35;;;;;;;;;;5134792;27;20193;-82
2024/03/07 08:27:15;;;;;;;3.72;2.28;;;;;;;;;;5134926;27;20293;-82
2024/03/07 08:29:42;;;;;;;5.50;2.53;;;;;;;;;;5134803;27;20328;-82
2024/03/07 08:32:09;;;;;;;4.18;2.35;;;;;;;;;;5135199;27;20296;-81
2024/03/07 08:34:36;;;;;;;6.10;2.47;;;;;;;;;;5134922;27;20197;-82
2024/03/07 08:37:04;;;;;;;5.07;2.70;;;;;;;;;;5135188;27;20197;-82
2024/03/07 08:39:31;;;;;;;6.25;2.78;;;;;;;;;;5134857;27;20198;-82
2024/03/07 08:42:00;;;;;;;5.80;2.90;;;;;;;;;;5134722;27;20200;-82
2024/03/07 08:44:27;;;;;;;5.20;3.10;;;;;;;;;;5134775;27;20292;-82
2024/03/07 08:46:54;;;;;;;4.90;3.00;;;;;;;;;;5135343;27;20203;-83
2024/03/07 08:49:22;;;;;;;6.20;3.00;;;;;;;;;;5134814;27;20312;-82
2024/03/07 08:51:49;;;;;;;5.43;3.40;;;;;;;;;;5134515;27;20220;-82
2024/03/07 08:54:16;;;;;;;5.07;2.70;;;;;;;;;;5134569;27;20193;-82
2024/03/07 08:56:45;;;;;;;4.82;2.95;;;;;;;;;;5134634;27;20264;-82
2024/03/07 08:59:17;;;;;;;6.60;3.13;;;;;;;;;;5134754;27;20189;-83
2024/03/07 09:01:44;;;;;;;5.13;2.97;;;;;;;;;;5134558;27;20203;-82
2024/03/07 09:04:11;;;;;;;4.78;2.95;;;;;;;;;;5134604;27;20189;-83
2024/03/07 09:06:39;;;;;;;4.38;2.45;;;;;;;;;;5134157;27;20197;-83
2024/03/07 09:09:08;;;;;;;5.32;2.67;;;;;;;;;;5134162;27;20229;-83
2024/03/07 09:11:36;;;;;;;6.32;2.80;;;;;;;;;;5134278;27;20197;-82
2024/03/07 09:14:07;;;;;;;4.07;2.40;;;;;;;;;;5134036;27;20197;-83
2024/03/07 09:16:35;;;;;;;6.33;2.70;;;;;;;;;;5133944;27;20224;-82
2024/03/07 09:19:02;;;;;;;5.55;2.67;;;;;;;;;;5134208;27;20199;-82
2024/03/07 09:21:30;;;;;;;4.90;2.63;;;;;;;;;;5134005;27;20197;-82
2024/03/07 09:23:57;;;;;;;5.33;2.40;;;;;;;;;;5133819;27;20666;-82
2024/03/07 09:26:25;;;;;;;5.67;2.90;;;;;;;;;;5133988;27;20288;-83
2024/03/07 09:28:52;;;;;;;4.90;2.10;;;;;;;;;;5133963;27;20229;-81
2024/03/07 09:31:20;;;;;;;4.07;2.20;;;;;;;;;;5134033;27;20283;-83
2024/03/07 09:33:49;;;;;;;3.80;1.90;;;;;;;;;;5134201;27;20246;-83
2024/03/07 09:36:18;;;;;;;4.93;1.93;;;;;;;;;;5133705;27;20204;-82
2024/03/07 09:38:46;;;;;;;5.30;2.07;;;;;;;;;;5133701;27;20224;-83
2024/03/07 09:41:15;;;;;;;4.43;1.90;;;;;;;;;;5132903;27;20248;-82
2024/03/07 09:43:44;;;;;;;3.80;1.97;;;;;;;;;;5133774;27;20197;-83
2024/03/07 09:46:11;;;;;;;5.87;1.80;;;;;;;;;;5133550;27;20291;-81
2024/03/07 09:48:38;;;;;;;4.27;1.60;;;;;;;;;;5133924;27;20231;-82
2024/03/07 09:51:09;;;;;;;3.47;1.47;;;;;;;;;;5133571;27;20288;-82
2024/03/07 09:53:38;;;;;;;4.73;1.77;;;;;;;;;;5133316;27;20229;-82
2024/03/07 09:56:06;;;;;;;3.97;1.50;;;;;;;;;;5133341;27;20197;-81
2024/03/07 09:58:34;;;;;;;4.13;1.70;;;;;;;;;;5133508;27;20272;-82
2024/03/07 10:01:02;;;;;;;3.43;1.40;;;;;;;;;;5133701;27;20190;-82
2024/03/07 10:03:30;;;;;;;4.57;1.73;;;;;;;;;;5133086;27;20283;-82
2024/03/07 10:05:58;;;;;;;2.70;1.40;;;;;;;;;;5132893;27;20484;-82
2024/03/07 10:08:27;;;;;;;4.53;1.63;;;;;;;;;;5132989;27;20276;-82
2024/03/07 10:10:56;;;;;;;3.13;1.30;;;;;;;;;;5133035;27;20720;-83
2024/03/07 10:13:24;;;;;;;3.30;1.50;;;;;;;;;;5114851;27;20240;-83
2024/03/07 10:15:52;;;;;;;2.97;1.23;;;;;;;;;;5132914;27;20319;-82
2024/03/07 10:18:22;;;;;;;3.47;1.47;;;;;;;;;;5132874;27;20681;-82
2024/03/07 10:20:49;;;;;;;4.43;1.60;;;;;;;;;;5132361;27;20278;-83
2024/03/07 10:23:20;;;;;;;3.00;1.67;;;;;;;;;;5133174;27;20193;-83
2024/03/07 10:25:50;;;;;;;3.57;1.60;;;;;;;;;;5132728;27;20193;-83
2024/03/07 10:28:17;;;;;;;3.87;1.40;;;;;;;;;;5132986;27;20292;-82
2024/03/07 10:30:45;;;;;;;3.47;1.80;;;;;;;;;;5132538;27;20320;-83
2024/03/07 10:33:15;;;;;;;2.27;1.60;;;;;;;;;;5132821;27;20549;-83
2024/03/07 10:35:42;;;;;;;4.88;1.70;;;;;;;;;;5132171;27;20689;-83
2024/03/07 10:38:11;;;;;;;3.20;1.63;;;;;;;;;;5132995;27;20217;-83
2024/03/07 10:40:40;;;;;;;3.55;1.80;;;;;;;;;;5132346;27;20670;-83
2024/03/07 10:43:11;;;;;;;2.97;1.43;;;;;;;;;;5132756;27;20287;-82
2024/03/07 10:45:43;;;;;;;3.83;1.70;;;;;;;;;;5132953;27;20232;-83
2024/03/07 10:48:13;;;;;;;2.57;1.60;;;;;;;;;;5131931;27;20225;-82
2024/03/07 10:50:43;;;;;;;6.27;1.87;;;;;;;;;;5132347;27;20328;-82
2024/03/07 10:53:16;;;;;;;4.73;1.73;;;;;;;;;;5132348;27;20279;-83
2024/03/07 10:55:50;;;;;;;3.55;1.80;;;;;;;;;;5113827;27;20201;-82
2024/03/07 10:58:25;;;;;;;2.67;1.60;;;;;;;;;;5132358;27;20232;-82
2024/03/07 11:00:58;;;;;;;3.38;1.60;;;;;;;;;;5132158;27;20288;-81
2024/03/07 11:03:25;;;;;;;2.42;1.50;;;;;;;;;;5132326;27;20231;-82
2024/03/07 11:05:52;;;;;;;2.00;1.27;;;;;;;;;;5132038;27;20224;-82
2024/03/07 11:08:20;;;;;;;3.58;1.30;;;;;;;;;;5132712;28;20284;-82
2024/03/07 11:10:48;;;;;;;2.25;1.13;;;;;;;;;;5132158;28;20319;-82
2024/03/07 11:13:16;;;;;;;5.50;1.38;;;;;;;;;;5119474;27;20208;-82
2024/03/07 11:15:46;;;;;;;2.92;1.33;;;;;;;;;;5111460;28;20757;-82
2024/03/07 11:18:13;;;;;;;2.00;1.17;;;;;;;;;;5111564;28;20280;-81
2024/03/07 11:20:46;;;;;;;3.53;1.37;;;;;;;;;;5111271;28;20201;-82
2024/03/07 11:23:28;;;;;;;2.67;1.20;;;;;;;;;;5112075;28;20193;-81
2024/03/07 11:25:56;;;;;;;2.70;1.27;;;;;;;;;;5108487;28;20288;-81
2024/03/07 11:28:31;;;;;;;2.10;1.13;;;;;;;;;;5112194;28;20197;-82
2024/03/07 11:31:10;;;;;;;4.03;1.40;;;;;;;;;;5111640;28;20260;-81
2024/03/07 11:33:40;;;;;;;2.70;1.27;;;;;;;;;;5111294;28;20212;-83
2024/03/07 11:36:08;;;;;;;2.03;1.25;;;;;;;;;;5111625;28;20263;-82
2024/03/07 11:38:35;;;;;;;4.43;1.20;;;;;;;;;;5111522;28;20221;-82
2024/03/07 11:41:04;;;;;;;4.60;1.58;;;;;;;;;;5111589;28;20198;-82
2024/03/07 11:43:31;;;;;;;4.22;1.50;;;;;;;;;;5111570;28;20202;-82
2024/03/07 11:45:58;;;;;;;1.60;1.10;;;;;;;;;;5111502;28;20229;-82
2024/03/07 11:48:27;;;;;;;2.00;1.50;;;;;;;;;;5111546;28;20194;-82
2024/03/07 11:50:56;;;;;;;3.13;1.60;;;;;;;;;;5111516;28;20261;-82
2024/03/07 11:53:23;;;;;;;4.70;1.40;;;;;;;;;;5111219;28;20198;-83
2024/03/07 11:55:50;;;;;;;3.42;1.48;;;;;;;;;;5111145;28;20228;-81
2024/03/07 11:58:21;;;;;;;4.18;1.27;;;;;;;;;;5111370;28;20297;-83
2024/03/07 12:00:48;;;;;;;2.70;1.50;;;;;;;;;;5111494;28;20561;-82
2024/03/07 12:03:17;;;;;;;1.95;1.08;;;;;;;;;;5110578;28;20229;-82
2024/03/07 12:05:46;;;;;;;3.08;1.33;;;;;;;;;;5115030;28;20190;-82
2024/03/07 12:08:13;;;;;;;2.22;1.27;;;;;;;;;;5115228;28;20288;-81
2024/03/07 12:10:43;;;;;;;2.65;1.30;;;;;;;;;;5114729;28;20308;-82
2024/03/07 12:13:11;;;;;;;2.63;1.25;;;;;;;;;;5126760;27;20228;-82
2024/03/07 12:15:38;;;;;;;2.07;1.27;;;;;;;;;;5135040;27;20232;-82
2024/03/07 12:18:09;;;;;;;2.25;1.08;;;;;;;;;;5134897;27;20228;-82
2024/03/07 12:20:40;;;;;;;3.27;0.90;;;;;;;;;;5135210;27;20193;-82
2024/03/07 12:23:11;;;;;;;2.73;1.20;;;;;;;;;;5135247;27;20292;-83
2024/03/07 12:25:40;;;;;;;2.83;1.00;;;;;;;;;;5134865;27;20259;-81
2024/03/07 12:28:10;;;;;;;2.07;0.90;;;;;;;;;;5135257;27;20234;-82
2024/03/07 12:30:39;;;;;;;2.03;1.10;;;;;;;;;;5134768;27;20751;-82
2024/03/07 12:33:08;;;;;;;1.97;0.90;;;;;;;;;;5135099;27;20189;-82
2024/03/07 12:35:36;;;;;;;5.00;1.27;;;;;;;;;;5135313;27;20200;-81
2024/03/07 12:38:04;;;;;;;2.70;1.00;;;;;;;;;;5134666;27;20197;-82
2024/03/07 12:40:36;;;;;;;2.03;0.90;;;;;;;;;;5134861;27;20230;-83
2024/03/07 12:43:04;;;;;;;2.53;1.10;;;;;;;;;;5134873;27;20210;-83
2024/03/07 12:45:34;;;;;;;1.83;0.97;;;;;;;;;;5134540;27;20272;-83
2024/03/07 12:48:04;;;;;;;2.40;1.00;;;;;;;;;;5134776;27;20193;-82
2024/03/07 12:50:34;;;;;;;1.60;1.00;;;;;;;;;;5134555;27;20223;-82
2024/03/07 12:53:05;;;;;;;1.70;1.00;;;;;;;;;;5134988;27;20197;-82
2024/03/07 12:55:35;;;;;;;1.70;0.87;;;;;;;;;;5134836;27;20200;-83
2024/03/07 12:58:04;;;;;;;1.30;0.80;;;;;;;;;;5134774;27;20292;-83
2024/03/07 13:00:31;;;;;;;3.38;1.00;;;;;;;;;;5134296;27;20197;-82
2024/03/07 13:03:00;;;;;;;2.25;1.08;;;;;;;;;;5137496;27;20216;-82
2024/03/07 13:05:27;;;;;;;1.27;0.90;;;;;;;;;;5137192;27;20211;-81
2024/03/07 13:07:55;;;;;;;3.13;1.00;;;;;;;;;;5135403;27;20228;-83
2024/03/07 13:10:23;;;;;;;2.13;0.80;;;;;;;;;;5135722;27;20310;-82
2024/03/07 13:12:52;;;;;;;2.28;1.00;;;;;;;;;;5134300;27;20204;-82
2024/03/07 13:15:21;;;;;;;1.65;0.95;;;;;;;;;;5133468;27;20246;-82
2024/03/07 13:17:49;;;;;;;1.92;1.05;;;;;;;;;;5134340;27;20283;-81
2024/03/07 13:20:16;;;;;;;3.65;1.13;;;;;;;;;;5134223;27;20201;-82
2024/03/07 13:22:46;;;;;;;2.35;0.90;;;;;;;;;;5134487;27;20231;-81
2024/03/07 13:25:15;;;;;;;1.75;1.00;;;;;;;;;;5133695;27;20254;-83
2024/03/07 13:27:55;;;;;;;1.27;0.80;;;;;;;;;;5115443;27;20193;-81
2024/03/07 13:30:27;;;;;;;1.70;0.80;;;;;;;;;;5134027;27;20235;-82
2024/03/07 13:32:55;;;;;;;2.05;0.90;;;;;;;;;;5133962;27;20569;-83
2024/03/07 13:35:22;;;;;;;2.17;1.00;;;;;;;;;;5133555;27;20230;-82
2024/03/07 13:37:50;;;;;;;3.00;1.20;;;;;;;;;;5133880;27;20288;-82
2024/03/07 13:40:24;;;;;;;3.65;1.20;;;;;;;;;;5134255;27;20284;-82
2024/03/07 13:42:53;;;;;;;2.93;0.90;;;;;;;;;;5133701;27;20249;-83
2024/03/07 13:45:22;;;;;;;1.50;0.90;;;;;;;;;;5133321;27;20189;-81
2024/03/07 13:47:52;;;;;;;3.07;1.00;;;;;;;;;;5133960;27;20193;-82
2024/03/07 13:50:22;;;;;;;1.37;1.10;;;;;;;;;;5133460;27;20725;-83
2024/03/07 13:55:30;;;;;;;3.23;1.00;;;;;;;;;;5129522;27;20201;-81
2024/03/07 13:58:00;;;;;;;2.43;1.23;;;;;;;;;;5112377;28;20190;-83
2024/03/07 14:00:34;;;;;;;1.57;1.00;;;;;;;;;;5112976;28;20225;-82
2024/03/07 14:03:15;;;;;;;2.07;1.10;;;;;;;;;;5112378;28;20209;-83
2024/03/07 14:06:00;;;;;;;1.33;1.10;;;;;;;;;;5113130;28;20217;-82
2024/03/07 14:08:44;;;;;;;2.40;1.17;;;;;;;;;;5112696;28;20201;-80
2024/03/07 14:11:21;;;;;;;2.00;1.20;;;;;;;;;;5112298;28;20229;-82
2024/03/07 14:14:00;;;;;;;2.37;1.30;;;;;;;;;;5129473;27;20228;-82
2024/03/07 14:16:48;;;;;;;2.33;1.20;;;;;;;;;;5132761;27;20256;-81
2024/03/07 14:19:40;;;;;;;2.93;1.60;;;;;;;;;;5049308;28;20244;-81
2024/03/07 14:22:21;;;;;;;3.10;1.30;;;;;;;;;;5040159;28;20223;-82
2024/03/07 14:25:16;;;;;;;3.40;1.20;;;;;;;;;;5049276;28;20281;-82
2024/03/07 14:27:52;;;;;;;1.60;1.10;;;;;;;;;;5047594;28;20196;-82
2024/03/07 14:30:26;;;;;;;1.83;1.20;;;;;;;;;;5049076;28;20317;-82
2024/03/07 14:32:55;;;;;;;2.67;1.27;;;;;;;;;;5048967;28;20249;-82
2024/03/07 14:35:26;;;;;;;1.30;1.20;;;;;;;;;;5049417;28;20285;-82
2024/03/07 14:37:56;;;;;;;1.97;1.20;;;;;;;;;;5049421;28;20196;-81
2024/03/07 14:40:26;;;;;;;2.63;1.33;;;;;;;;;;5048914;28;20195;-82
2024/03/07 14:42:56;;;;;;;2.23;1.50;;;;;;;;;;5048654;28;20219;-81
2024/03/07 14:45:25;;;;;;;2.10;1.50;;;;;;;;;;5049033;28;20196;-82
2024/03/07 14:47:53;;;;;;;1.77;1.17;;;;;;;;;;5049020;28;20195;-81
2024/03/07 14:50:21;;;;;;;2.10;1.23;;;;;;;;;;5048944;28;20713;-83